Main page
METAR-TAF:

METAR-TAF

Airports :

Srinagar, India

Srinagar International Airport

latitude: 33-59-14N, longitude: 074-46-27E, elevation: 1655 m

Current weather observation

The report was made 5 hours and 5 minutes ago, at 15:30 UTC
Wind 2 kt from variable directions
Temperature 13°C
Humidity 77%
Pressure 1021 hPa
Visibility: 6000 m
Scattered clouds at a height of 2500 ft
Few clouds at a height of 3000 ft, Cumulonimbus.
Broken clouds at a height of 8000 ft

METAR: VISR 301530Z VRB02KT 6000 SCT025 FEW030CB BKN080 13/09 Q1021 TEMPO TS

Time: 02:05 (20:35 UTC)


TAF: missing

Weather observations and forecasts of more than 4000 airports (METAR and TAF reports).

The available stations are represented by yellow and red dots on the map.

Hover mouse over dot to see the name of the station.

Then click to see weather observations and forecasts.

To change the map : click on the green buttons with a black cross to zoom in, on the green button with a dash to zoom out, or on the green arrows for adjacent maps.


METAR-TAF: